createdAt,value
2022-12-04T00:01:30.313Z,-0.57
2022-12-04T00:04:00.231Z,-0.61
2022-12-04T00:06:29.640Z,-0.61
2022-12-04T00:08:58.453Z,-0.87
2022-12-04T00:11:29.489Z,-0.66
2022-12-04T00:14:06.500Z,-0.58
2022-12-04T00:16:36.142Z,-0.51
2022-12-04T00:19:05.060Z,-0.61
2022-12-04T00:21:33.658Z,-0.64
2022-12-04T00:24:02.351Z,-0.64
2022-12-04T00:26:31.940Z,-0.67
2022-12-04T00:29:01.724Z,-0.52
2022-12-04T00:31:32.017Z,-0.72
2022-12-04T00:34:02.212Z,-0.46
2022-12-04T00:36:31.601Z,-0.46
2022-12-04T00:39:01.794Z,-0.45
2022-12-04T00:41:31.900Z,-0.35
2022-12-04T00:44:02.401Z,-0.44
2022-12-04T00:46:31.073Z,-0.43
2022-12-04T00:49:02.627Z,-0.51
2022-12-04T00:51:31.348Z,-0.51
2022-12-04T00:53:59.729Z,-0.52
2022-12-04T00:56:29.890Z,-0.69
2022-12-04T00:59:00.206Z,-0.52
2022-12-04T01:01:31.342Z,-0.46
2022-12-04T01:04:00.291Z,-0.48
2022-12-04T01:06:30.897Z,-0.48
2022-12-04T01:09:00.434Z,-0.46
2022-12-04T01:11:30.720Z,-0.46
2022-12-04T01:14:00.049Z,-0.48
2022-12-04T01:16:32.414Z,-0.45
2022-12-04T01:19:01.298Z,-0.53
2022-12-04T01:21:29.947Z,-0.47
2022-12-04T01:23:58.954Z,-0.48
2022-12-04T01:26:27.413Z,-0.42
2022-12-04T01:28:55.801Z,-0.45
2022-12-04T01:31:24.275Z,-0.63
2022-12-04T01:33:54.551Z,-0.42
2022-12-04T01:36:25.513Z,-0.67
2022-12-04T01:38:54.579Z,-0.44
2022-12-04T01:41:26.895Z,-0.50
2022-12-04T01:44:16.027Z,-0.40
2022-12-04T01:46:46.538Z,-0.44
2022-12-04T01:49:21.600Z,-0.76
2022-12-04T01:51:53.750Z,-0.42
2022-12-04T01:54:28.844Z,-0.41
2022-12-04T01:57:02.599Z,-0.41
2022-12-04T01:59:35.387Z,-0.42
2022-12-04T02:02:07.165Z,-0.50
2022-12-04T02:04:37.803Z,-0.47
2022-12-04T02:07:06.452Z,-0.38
2022-12-04T02:09:36.772Z,-0.51
2022-12-04T02:12:10.261Z,-1.04
2022-12-04T02:14:47.658Z,-0.34
2022-12-04T02:17:24.232Z,-0.49
2022-12-04T02:20:12.524Z,-0.28
2022-12-04T02:22:58.903Z,-0.26
2022-12-04T02:25:37.347Z,-0.23
2022-12-04T02:28:11.664Z,-0.25
2022-12-04T02:30:43.822Z,-0.25
2022-12-04T02:33:20.930Z,-0.26
2022-12-04T02:35:53.610Z,-0.75
2022-12-04T02:38:27.222Z,-0.38
2022-12-04T02:41:00.706Z,-0.27
2022-12-04T02:43:33.888Z,-0.29
2022-12-04T02:46:08.216Z,-0.27
2022-12-04T02:48:40.857Z,-0.32
2022-12-04T02:51:12.876Z,-0.34
2022-12-04T02:53:46.115Z,-0.33
2022-12-04T02:56:18.770Z,-0.34
2022-12-04T02:58:53.082Z,-0.53
2022-12-04T03:01:28.795Z,-0.52
2022-12-04T03:04:02.156Z,-0.28
2022-12-04T03:06:34.752Z,-0.27
2022-12-04T03:09:07.883Z,-0.26
2022-12-04T03:11:39.748Z,-0.27
2022-12-04T03:14:16.126Z,-0.26
2022-12-04T03:16:44.934Z,-0.24
2022-12-04T03:19:18.782Z,-0.21
2022-12-04T03:21:52.456Z,-0.27
2022-12-04T03:24:24.956Z,-0.23
2022-12-04T03:27:00.569Z,-0.17
2022-12-04T03:29:35.567Z,-0.22
2022-12-04T03:32:11.957Z,-0.20
2022-12-04T03:34:46.696Z,-0.28
2022-12-04T03:37:19.336Z,-0.35
2022-12-04T03:39:56.878Z,-0.35
2022-12-04T03:42:29.242Z,-0.39
2022-12-04T03:45:04.434Z,-0.40
2022-12-04T03:47:38.436Z,-0.41
2022-12-04T03:50:11.661Z,-0.44
2022-12-04T03:52:49.999Z,-0.40
2022-12-04T03:55:26.318Z,-0.58
2022-12-04T03:57:58.331Z,-0.54
2022-12-04T04:00:28.692Z,-0.42
2022-12-04T04:03:02.608Z,-0.39
2022-12-04T04:05:33.191Z,-0.40
2022-12-04T04:08:19.615Z,-0.44
2022-12-04T04:10:48.350Z,-0.40
2022-12-04T04:13:34.903Z,-0.63
2022-12-04T04:16:25.162Z,-0.48
2022-12-04T04:19:13.896Z,-0.53
2022-12-04T04:22:01.261Z,-0.42
2022-12-04T04:24:36.096Z,-0.48
2022-12-04T04:27:04.756Z,-0.51
2022-12-04T04:29:33.329Z,-0.49
2022-12-04T04:32:11.166Z,-0.48
2022-12-04T04:34:48.852Z,-0.44
2022-12-04T04:37:26.619Z,-0.38
2022-12-04T04:40:05.215Z,-0.41
2022-12-04T04:42:38.891Z,-0.39
2022-12-04T04:45:09.962Z,-0.47
2022-12-04T04:47:49.246Z,-0.73
2022-12-04T04:50:20.320Z,-0.45
2022-12-04T04:52:52.532Z,-0.44
2022-12-04T04:55:21.654Z,-0.45
2022-12-04T04:57:50.193Z,-0.44
2022-12-04T05:00:22.552Z,-0.43
2022-12-04T05:02:52.768Z,-0.41
2022-12-04T05:05:21.135Z,-0.44
2022-12-04T05:07:49.566Z,-0.63
2022-12-04T05:10:17.962Z,-0.40
2022-12-04T05:12:46.404Z,-0.57
2022-12-04T05:15:14.796Z,-0.35
2022-12-04T05:17:43.130Z,-0.74
2022-12-04T05:20:13.662Z,-0.32
2022-12-04T05:22:41.997Z,-0.34
2022-12-04T05:25:11.724Z,-0.38
2022-12-04T05:27:40.651Z,-0.38
2022-12-04T05:30:10.163Z,-0.37
2022-12-04T05:32:38.447Z,-0.37
2022-12-04T05:35:10.956Z,-0.41
2022-12-04T05:37:42.384Z,-0.57
2022-12-04T05:40:11.577Z,-0.32
2022-12-04T05:42:39.899Z,-0.37
2022-12-04T05:45:09.220Z,-0.43
2022-12-04T05:47:40.493Z,-0.39
2022-12-04T05:50:10.819Z,-0.42
2022-12-04T05:52:41.303Z,-0.46
2022-12-04T05:55:10.087Z,-0.53
2022-12-04T05:57:38.467Z,-0.68
2022-12-04T06:00:08.098Z,-0.50
2022-12-04T06:02:36.639Z,-0.47
2022-12-04T06:05:05.873Z,-0.48
2022-12-04T06:07:34.548Z,-0.49
2022-12-04T06:10:04.414Z,-0.43
2022-12-04T06:12:32.793Z,-0.55
2022-12-04T06:15:01.081Z,-0.60
2022-12-04T06:17:29.600Z,-0.48
2022-12-04T06:19:58.739Z,-0.64
2022-12-04T06:22:27.432Z,-0.33
2022-12-04T06:24:55.741Z,-0.37
2022-12-04T06:27:28.045Z,-0.43
2022-12-04T06:29:56.902Z,-0.39
2022-12-04T06:32:25.539Z,-0.36
2022-12-04T06:34:54.641Z,-0.35
2022-12-04T06:37:24.488Z,-0.33
2022-12-04T06:39:53.906Z,-0.47
2022-12-04T06:42:22.465Z,-0.39
2022-12-04T06:44:52.243Z,-0.31
2022-12-04T06:47:20.577Z,-0.26
2022-12-04T06:49:51.250Z,-0.26
2022-12-04T06:52:20.027Z,-0.42
2022-12-04T06:54:48.380Z,-0.35
2022-12-04T06:57:16.792Z,-0.38
2022-12-04T06:59:45.828Z,-0.43
2022-12-04T07:02:15.831Z,-0.43
2022-12-04T07:04:44.284Z,-0.54
2022-12-04T07:07:12.932Z,-0.55
2022-12-04T07:09:41.243Z,-0.56
2022-12-04T07:12:09.591Z,-0.62
2022-12-04T07:14:37.953Z,-0.67
2022-12-04T07:17:06.929Z,-0.72
2022-12-04T07:19:36.715Z,-0.58
2022-12-04T07:22:05.104Z,-0.62
2022-12-04T07:24:33.516Z,-0.58
2022-12-04T07:27:02.333Z,-0.50
2022-12-04T07:29:31.086Z,-0.45
2022-12-04T07:31:59.518Z,-0.49
2022-12-04T07:34:27.945Z,-0.51
2022-12-04T07:36:57.816Z,-0.48
2022-12-04T07:39:26.187Z,-0.48
2022-12-04T07:41:54.554Z,-0.48
2022-12-04T07:44:22.853Z,-0.41
2022-12-04T07:46:51.209Z,-0.45
2022-12-04T07:49:19.507Z,-0.65
2022-12-04T07:51:47.850Z,-0.42
2022-12-04T07:54:17.984Z,-0.37
2022-12-04T07:56:46.328Z,-0.32
2022-12-04T07:59:14.746Z,-0.23
2022-12-04T08:01:43.114Z,-0.20
2022-12-04T08:04:13.022Z,-0.23
2022-12-04T08:06:41.908Z,-0.20
2022-12-04T08:09:10.624Z,-0.17
2022-12-04T08:11:40.553Z,-0.12
2022-12-04T08:14:10.128Z,-0.13
2022-12-04T08:16:38.607Z,-0.09
2022-12-04T08:19:07.099Z,-0.08
2022-12-04T08:21:35.577Z,-0.07
2022-12-04T08:24:04.409Z,-0.04
2022-12-04T08:26:33.855Z,0.02
2022-12-04T08:29:04.787Z,0.07
2022-12-04T08:31:35.877Z,0.01
2022-12-04T08:34:07.211Z,0.02
2022-12-04T08:36:36.166Z,0.04
2022-12-04T08:39:05.056Z,0.02
2022-12-04T08:41:33.964Z,0.03
2022-12-04T08:44:04.385Z,0.05
2022-12-04T08:46:32.831Z,-1.46
2022-12-04T08:49:01.600Z,-0.09
2022-12-04T08:51:32.091Z,-0.19
2022-12-04T08:54:02.749Z,-0.11
2022-12-04T08:56:32.392Z,-0.07
2022-12-04T08:59:02.021Z,-0.14
2022-12-04T09:01:32.254Z,-0.45
2022-12-04T09:04:00.846Z,-0.29
2022-12-04T09:06:29.181Z,-0.33
2022-12-04T09:08:58.364Z,-0.81
2022-12-04T09:11:29.964Z,-0.14
2022-12-04T09:13:59.083Z,-0.16
2022-12-04T09:16:27.948Z,-0.29
2022-12-04T09:18:57.728Z,-0.13
2022-12-04T09:21:26.923Z,-0.12
2022-12-04T09:23:55.304Z,-0.11
2022-12-04T09:26:26.919Z,0.01
2022-12-04T09:28:57.846Z,-0.03
2022-12-04T09:31:26.661Z,0.05
2022-12-04T09:33:56.205Z,0.10
2022-12-04T09:36:25.932Z,0.09
2022-12-04T09:38:55.792Z,0.13
2022-12-04T09:41:51.198Z,0.16
2022-12-04T09:44:24.545Z,0.17
2022-12-04T09:46:56.438Z,0.11
2022-12-04T09:49:30.841Z,0.04
2022-12-04T09:52:05.483Z,0.10
2022-12-04T09:54:41.034Z,0.22
2022-12-04T09:57:29.423Z,0.10
2022-12-04T09:59:58.664Z,0.15
2022-12-04T10:02:36.926Z,0.10
2022-12-04T10:05:06.414Z,0.17
2022-12-04T10:07:47.296Z,0.25
2022-12-04T10:10:20.750Z,0.17
2022-12-04T10:12:58.996Z,0.23
2022-12-04T10:15:35.728Z,0.18
2022-12-04T10:18:26.776Z,0.22
2022-12-04T10:21:15.594Z,0.30
2022-12-04T10:23:57.126Z,0.24
2022-12-04T10:26:31.248Z,-0.00
2022-12-04T10:29:04.386Z,0.21
2022-12-04T10:31:36.506Z,0.23
2022-12-04T10:34:09.064Z,0.16
2022-12-04T10:36:37.581Z,0.37
2022-12-04T10:39:16.036Z,0.14
2022-12-04T10:41:53.293Z,0.32
2022-12-04T10:44:22.316Z,-0.22
2022-12-04T10:46:52.720Z,0.46
2022-12-04T10:49:25.244Z,0.41
2022-12-04T10:51:54.843Z,0.32
2022-12-04T10:54:31.407Z,0.36
2022-12-04T10:57:01.712Z,0.45
2022-12-04T10:59:30.907Z,0.36
2022-12-04T11:02:07.271Z,0.59
2022-12-04T11:04:37.131Z,0.63
2022-12-04T11:07:08.868Z,0.68
2022-12-04T11:09:38.883Z,0.74
2022-12-04T11:12:10.483Z,0.83
2022-12-04T11:14:42.730Z,0.76
2022-12-04T11:17:18.892Z,0.71
2022-12-04T11:19:47.967Z,0.62
2022-12-04T11:22:19.478Z,0.64
2022-12-04T11:24:56.599Z,0.68
2022-12-04T11:27:31.696Z,0.61
2022-12-04T11:30:02.373Z,0.66
2022-12-04T11:32:32.916Z,0.61
2022-12-04T11:35:07.137Z,0.62
2022-12-04T11:37:39.352Z,0.53
2022-12-04T11:40:21.154Z,0.44
2022-12-04T11:43:03.846Z,0.50
2022-12-04T11:45:32.785Z,0.50
2022-12-04T11:48:03.664Z,0.60
2022-12-04T11:50:40.873Z,0.16
2022-12-04T11:53:17.452Z,0.23
2022-12-04T11:56:08.428Z,0.25
2022-12-04T11:58:56.940Z,0.45
2022-12-04T12:01:42.386Z,0.32
2022-12-04T12:04:38.525Z,0.56
2022-12-04T12:07:25.240Z,0.47
2022-12-04T12:10:05.246Z,0.51
2022-12-04T12:12:45.418Z,0.60
2022-12-04T12:15:25.802Z,0.59
2022-12-04T12:18:16.461Z,0.55
2022-12-04T12:20:57.296Z,0.62
2022-12-04T12:23:41.714Z,0.14
2022-12-04T12:26:13.186Z,0.65
2022-12-04T12:29:02.997Z,0.55
2022-12-04T12:31:51.688Z,0.49
2022-12-04T12:34:37.402Z,0.52
2022-12-04T12:37:17.063Z,0.34
2022-12-04T12:39:49.688Z,0.58
2022-12-04T12:42:22.991Z,0.55
2022-12-04T12:44:59.415Z,0.48
2022-12-04T12:47:32.221Z,0.49
2022-12-04T12:50:06.247Z,0.42
2022-12-04T12:52:40.236Z,0.45
2022-12-04T12:55:19.665Z,0.49
2022-12-04T12:58:02.615Z,0.46
2022-12-04T13:00:38.403Z,0.40
2022-12-04T13:03:13.636Z,0.35
2022-12-04T13:05:46.991Z,0.38
2022-12-04T13:08:22.796Z,0.39
2022-12-04T13:11:03.317Z,0.43
2022-12-04T13:13:35.141Z,0.18
2022-12-04T13:16:11.947Z,0.45
2022-12-04T13:18:45.413Z,0.53
2022-12-04T13:21:34.400Z,0.52
2022-12-04T13:24:32.087Z,0.44
2022-12-04T13:27:08.460Z,0.56
2022-12-04T13:29:51.574Z,0.36
2022-12-04T13:32:51.453Z,0.26
2022-12-04T13:35:29.617Z,0.29
2022-12-04T13:38:15.227Z,0.36
2022-12-04T13:40:47.905Z,0.42
2022-12-04T13:43:32.585Z,0.31
2022-12-04T13:46:03.899Z,0.27
2022-12-04T13:48:40.346Z,0.41
2022-12-04T13:51:24.362Z,0.19
2022-12-04T13:54:02.568Z,0.24
2022-12-04T13:56:32.655Z,0.31
2022-12-04T13:59:03.483Z,0.32
2022-12-04T14:01:38.848Z,0.28
2022-12-04T14:04:09.081Z,0.39
2022-12-04T14:06:40.548Z,0.27
2022-12-04T14:09:19.741Z,0.27
2022-12-04T14:11:52.492Z,0.26
2022-12-04T14:14:28.963Z,0.22
2022-12-04T14:16:59.473Z,0.19
2022-12-04T14:19:33.753Z,0.14
2022-12-04T14:22:02.289Z,0.13
2022-12-04T14:24:35.179Z,0.26
2022-12-04T14:27:12.529Z,0.22
2022-12-04T14:29:49.656Z,0.20
2022-12-04T14:32:23.579Z,0.17
2022-12-04T14:34:54.847Z,0.15
2022-12-04T14:37:30.669Z,0.20
2022-12-04T14:40:00.161Z,-0.11
2022-12-04T14:42:34.890Z,-0.06
2022-12-04T14:45:06.369Z,-0.05
2022-12-04T14:47:44.480Z,0.10
2022-12-04T14:50:26.903Z,-0.03
2022-12-04T14:53:05.173Z,0.05
2022-12-04T14:55:41.747Z,-0.12
2022-12-04T14:58:34.773Z,-0.08
2022-12-04T15:01:05.204Z,-0.11
2022-12-04T15:03:37.920Z,0.03
2022-12-04T15:06:10.267Z,-0.05
2022-12-04T15:08:49.506Z,-0.04
2022-12-04T15:11:40.124Z,0.01
2022-12-04T15:14:15.008Z,0.01
2022-12-04T15:16:43.653Z,0.03
2022-12-04T15:19:18.968Z,0.08
2022-12-04T15:21:49.220Z,0.10
2022-12-04T15:24:24.323Z,0.14
2022-12-04T15:26:54.073Z,0.24
2022-12-04T15:29:26.085Z,0.06
2022-12-04T15:31:57.971Z,-0.17
2022-12-04T15:34:32.386Z,0.08
2022-12-04T15:37:08.018Z,0.07
2022-12-04T15:39:38.233Z,0.14
2022-12-04T15:42:08.563Z,0.13
2022-12-04T15:44:38.007Z,0.14
2022-12-04T15:47:23.977Z,0.09
2022-12-04T15:49:52.748Z,0.07
2022-12-04T15:52:25.365Z,0.03
2022-12-04T15:54:57.797Z,0.03
2022-12-04T15:57:30.995Z,0.10
2022-12-04T16:00:03.212Z,0.03
2022-12-04T16:02:35.852Z,0.01
2022-12-04T16:05:13.537Z,0.05
2022-12-04T16:07:52.724Z,-0.17
2022-12-04T16:10:23.147Z,0.08
2022-12-04T16:12:54.753Z,0.06
2022-12-04T16:15:23.867Z,0.09
2022-12-04T16:17:53.181Z,0.09
2022-12-04T16:20:22.747Z,0.10
2022-12-04T16:22:56.149Z,-0.05
2022-12-04T16:25:25.030Z,0.16
2022-12-04T16:27:54.386Z,0.23
2022-12-04T16:30:23.075Z,0.02
2022-12-04T16:32:51.387Z,0.21
2022-12-04T16:35:19.944Z,0.19
2022-12-04T16:37:49.103Z,0.17
2022-12-04T16:40:19.164Z,0.15
2022-12-04T16:42:47.514Z,0.15
2022-12-04T16:45:24.464Z,-0.16
2022-12-04T16:47:53.144Z,0.16
2022-12-04T16:50:21.931Z,-0.13
2022-12-04T16:52:50.225Z,0.15
2022-12-04T16:55:25.947Z,0.09
2022-12-04T16:57:54.311Z,0.19
2022-12-04T17:00:24.151Z,-0.30
2022-12-04T17:02:52.973Z,0.16
2022-12-04T17:05:23.371Z,0.13
2022-12-04T17:07:51.951Z,0.13
2022-12-04T17:10:24.153Z,0.24
2022-12-04T17:12:54.769Z,0.14
2022-12-04T17:15:23.537Z,-0.04
2022-12-04T17:17:52.150Z,0.01
2022-12-04T17:20:22.291Z,0.09
2022-12-04T17:22:51.062Z,0.02
2022-12-04T17:25:19.815Z,-0.41
2022-12-04T17:27:49.971Z,-0.25
2022-12-04T17:30:18.479Z,-0.01
2022-12-04T17:32:47.925Z,-0.33
2022-12-04T17:35:16.837Z,-0.12
2022-12-04T17:37:45.589Z,-0.43
2022-12-04T17:40:14.957Z,-0.18
2022-12-04T17:42:44.649Z,-0.07
2022-12-04T17:45:17.074Z,0.08
2022-12-04T17:47:45.436Z,0.13
2022-12-04T17:50:15.755Z,0.13
2022-12-04T17:52:44.545Z,0.03
2022-12-04T17:55:12.854Z,-0.45
2022-12-04T17:57:41.235Z,-0.05
2022-12-04T18:00:10.864Z,0.09
2022-12-04T18:02:42.626Z,0.09
2022-12-04T18:05:11.830Z,0.22
2022-12-04T18:07:40.306Z,0.23
2022-12-04T18:10:09.240Z,0.17
2022-12-04T18:12:38.460Z,0.10
2022-12-04T18:15:07.920Z,0.01
2022-12-04T18:17:37.213Z,0.19
2022-12-04T18:20:09.109Z,0.11
2022-12-04T18:22:37.700Z,0.21
2022-12-04T18:25:07.532Z,0.20
2022-12-04T18:27:40.464Z,0.18
2022-12-04T18:30:10.977Z,0.19
2022-12-04T18:32:39.459Z,-0.36
2022-12-04T18:35:10.052Z,0.18
2022-12-04T18:37:38.414Z,0.19
2022-12-04T18:40:08.720Z,0.23
2022-12-04T18:42:37.763Z,0.23
2022-12-04T18:45:06.848Z,-0.21
2022-12-04T18:47:36.754Z,-0.25
2022-12-04T18:50:05.219Z,0.00
2022-12-04T18:52:38.618Z,0.18
2022-12-04T18:55:07.483Z,0.08
2022-12-04T18:57:35.962Z,0.26
2022-12-04T19:00:05.010Z,0.26
2022-12-04T19:02:33.483Z,0.29
2022-12-04T19:05:02.572Z,0.27
2022-12-04T19:07:31.092Z,0.25
2022-12-04T19:10:16.345Z,0.26
2022-12-04T19:12:44.876Z,0.26
2022-12-04T19:15:13.315Z,0.25
2022-12-04T19:17:41.727Z,0.24
2022-12-04T19:20:11.537Z,0.27
2022-12-04T19:22:40.058Z,0.24
2022-12-04T19:25:10.836Z,0.29
2022-12-04T19:27:39.369Z,-0.05
2022-12-04T19:30:09.063Z,0.32
2022-12-04T19:32:37.459Z,0.36
2022-12-04T19:35:06.317Z,0.28
2022-12-04T19:37:38.276Z,0.27
2022-12-04T19:40:13.898Z,0.27
2022-12-04T19:42:42.286Z,0.22
2022-12-04T19:45:11.482Z,0.34
2022-12-04T19:47:39.843Z,0.30
2022-12-04T19:50:10.484Z,0.22
2022-12-04T19:52:40.156Z,-0.06
2022-12-04T19:55:13.686Z,0.20
2022-12-04T19:57:43.563Z,0.17
2022-12-04T20:00:15.104Z,0.20
2022-12-04T20:02:44.880Z,0.21
2022-12-04T20:05:14.891Z,0.27
2022-12-04T20:07:44.813Z,0.27
2022-12-04T20:10:16.699Z,0.28
2022-12-04T20:12:46.498Z,0.24
2022-12-04T20:15:16.193Z,0.26
2022-12-04T20:17:45.867Z,0.25
2022-12-04T20:20:16.039Z,0.24
2022-12-04T20:22:45.869Z,0.25
2022-12-04T20:25:17.219Z,0.21
2022-12-04T20:27:47.952Z,0.20
2022-12-04T20:30:17.757Z,0.22
2022-12-04T20:32:47.382Z,0.21
2022-12-04T20:35:17.280Z,0.24
2022-12-04T20:37:47.312Z,0.24
2022-12-04T20:40:19.798Z,0.28
2022-12-04T20:42:49.348Z,0.27
2022-12-04T20:45:19.075Z,0.08
2022-12-04T20:47:48.935Z,0.03
2022-12-04T20:50:19.450Z,0.06
2022-12-04T20:52:49.126Z,0.29
2022-12-04T20:55:20.699Z,0.20
2022-12-04T20:57:50.415Z,0.30
2022-12-04T21:00:20.633Z,0.30
2022-12-04T21:02:51.560Z,0.33
2022-12-04T21:05:21.900Z,0.32
2022-12-04T21:07:50.456Z,0.31
2022-12-04T21:10:20.212Z,0.32
2022-12-04T21:13:07.079Z,0.32
2022-12-04T21:15:54.497Z,0.33
2022-12-04T21:18:24.772Z,0.33
2022-12-04T21:20:57.145Z,0.31
2022-12-04T21:23:27.375Z,0.31
2022-12-04T21:25:59.676Z,0.34
2022-12-04T21:28:29.501Z,0.35
2022-12-04T21:31:03.677Z,0.40
2022-12-04T21:33:36.139Z,0.36
2022-12-04T21:36:07.187Z,0.37
2022-12-04T21:38:37.580Z,-0.05
2022-12-04T21:41:11.177Z,0.33
2022-12-04T21:43:41.051Z,0.29
2022-12-04T21:46:10.994Z,0.35
2022-12-04T21:48:39.765Z,0.27
2022-12-04T21:51:26.668Z,0.47
2022-12-04T21:53:57.837Z,0.46
2022-12-04T21:56:28.023Z,0.15
2022-12-04T21:58:56.635Z,0.24
2022-12-04T22:01:26.731Z,0.33
2022-12-04T22:03:56.888Z,0.42
2022-12-04T22:06:26.256Z,0.40
2022-12-04T22:08:54.604Z,0.30
2022-12-04T22:11:23.123Z,0.09
2022-12-04T22:13:52.840Z,0.31
2022-12-04T22:16:26.789Z,0.35
2022-12-04T22:18:59.240Z,0.39
2022-12-04T22:21:29.364Z,0.43
2022-12-04T22:23:58.756Z,0.44
2022-12-04T22:26:28.329Z,0.23
2022-12-04T22:28:58.490Z,0.30
2022-12-04T22:31:28.825Z,0.12
2022-12-04T22:33:59.852Z,0.20
2022-12-04T22:36:30.913Z,0.23
2022-12-04T22:39:09.497Z,-0.34
2022-12-04T22:41:39.191Z,0.25
2022-12-04T22:44:09.004Z,0.02
2022-12-04T22:46:37.311Z,0.29
2022-12-04T22:49:05.865Z,0.31
2022-12-04T22:51:34.279Z,0.35
2022-12-04T22:54:02.771Z,0.28
2022-12-04T22:56:32.629Z,-0.03
2022-12-04T22:59:01.552Z,0.27
2022-12-04T23:01:33.050Z,0.26
2022-12-04T23:04:02.248Z,0.28
2022-12-04T23:06:33.027Z,0.30
2022-12-04T23:09:03.595Z,0.36
2022-12-04T23:11:32.681Z,0.27
2022-12-04T23:14:04.555Z,0.27
2022-12-04T23:16:37.040Z,0.28
2022-12-04T23:19:05.579Z,0.06
2022-12-04T23:21:34.481Z,0.21
2022-12-04T23:24:03.049Z,-0.30
2022-12-04T23:26:36.457Z,0.34
2022-12-04T23:29:18.050Z,0.33
2022-12-04T23:31:55.687Z,0.42
2022-12-04T23:34:24.223Z,0.42
2022-12-04T23:36:52.499Z,-0.12
2022-12-04T23:39:20.974Z,0.48
2022-12-04T23:41:49.273Z,0.49
2022-12-04T23:44:18.095Z,0.51
2022-12-04T23:46:46.466Z,0.51
2022-12-04T23:49:16.336Z,0.55
2022-12-04T23:51:44.815Z,0.28
2022-12-04T23:54:13.926Z,0.53
2022-12-04T23:56:42.242Z,0.55
2022-12-04T23:59:10.698Z,0.51
